createdAt,value
2017-09-03T00:00:57.207Z,1018.2
2017-09-03T00:01:58.853Z,1018.2
2017-09-03T00:03:00.457Z,1018.2
2017-09-03T00:04:02.158Z,1018.2
2017-09-03T00:05:03.765Z,1018.1
2017-09-03T00:06:05.368Z,1018.1
2017-09-03T00:07:06.978Z,1018.1
2017-09-03T00:08:08.595Z,1018.1
2017-09-03T00:09:10.342Z,1018.1
2017-09-03T00:10:12.012Z,1018.1
2017-09-03T00:11:13.582Z,1018.1
2017-09-03T00:12:15.225Z,1018.1
2017-09-03T00:13:16.819Z,1018.1
2017-09-03T00:14:18.418Z,1018.1
2017-09-03T00:15:20.053Z,1018.1
2017-09-03T00:16:21.676Z,1018.1
2017-09-03T00:17:23.278Z,1018.1
2017-09-03T00:18:24.939Z,1018.1
2017-09-03T00:19:26.535Z,1018.1
2017-09-03T00:20:28.141Z,1018.1
2017-09-03T00:21:29.711Z,1018.1
2017-09-03T00:22:31.369Z,1018.1
2017-09-03T00:23:33.063Z,1018.1
2017-09-03T00:24:34.661Z,1018.1
2017-09-03T00:25:36.292Z,1018.1
2017-09-03T00:26:37.928Z,1018.1
2017-09-03T00:27:39.595Z,1018.1
2017-09-03T00:28:41.187Z,1018.1
2017-09-03T00:29:42.799Z,1018.1
2017-09-03T00:30:44.362Z,1018.1
2017-09-03T00:31:45.940Z,1018.1
2017-09-03T00:32:47.563Z,1018.1
2017-09-03T00:33:49.176Z,1018.1
2017-09-03T00:34:50.730Z,1018.1
2017-09-03T00:35:52.319Z,1018.1
2017-09-03T00:36:53.932Z,1018.1
2017-09-03T00:37:55.658Z,1018.0
2017-09-03T00:38:57.306Z,1018.0
2017-09-03T00:39:58.892Z,1018.1
2017-09-03T00:41:00.515Z,1018.0
2017-09-03T00:42:02.156Z,1018.0
2017-09-03T00:43:03.799Z,1018.0
2017-09-03T00:44:05.422Z,1018.0
2017-09-03T00:45:07.056Z,1018.0
2017-09-03T00:46:08.701Z,1017.9
2017-09-03T00:47:10.328Z,1017.9
2017-09-03T00:48:11.941Z,1018.0
2017-09-03T00:49:13.541Z,1017.9
2017-09-03T00:50:15.111Z,1017.9
2017-09-03T00:51:16.787Z,1017.9
2017-09-03T00:52:18.348Z,1017.9
2017-09-03T00:53:19.939Z,1017.9
2017-09-03T00:54:21.507Z,1017.9
2017-09-03T00:55:23.164Z,1017.9
2017-09-03T00:56:24.762Z,1017.8
2017-09-03T00:57:26.420Z,1017.9
2017-09-03T00:58:28.025Z,1017.8
2017-09-03T00:59:29.681Z,1017.9
2017-09-03T01:00:32.223Z,1017.8
2017-09-03T01:01:33.784Z,1017.8
2017-09-03T01:02:35.385Z,1017.8
2017-09-03T01:03:37.074Z,1017.9
2017-09-03T01:04:38.744Z,1017.8
2017-09-03T01:05:40.371Z,1017.8
2017-09-03T01:06:42.000Z,1017.8
2017-09-03T01:07:43.614Z,1017.8
2017-09-03T01:08:45.215Z,1017.8
2017-09-03T01:09:46.851Z,1017.8
2017-09-03T01:10:48.479Z,1017.7
2017-09-03T01:11:50.059Z,1017.7
2017-09-03T01:12:51.643Z,1017.7
2017-09-03T01:13:53.282Z,1017.7
2017-09-03T01:14:54.923Z,1017.6
2017-09-03T01:15:56.510Z,1017.6
2017-09-03T01:16:58.106Z,1017.7
2017-09-03T01:17:59.746Z,1017.6
2017-09-03T01:19:01.373Z,1017.7
2017-09-03T01:20:03.241Z,1017.6
2017-09-03T01:21:04.852Z,1017.6
2017-09-03T01:22:06.446Z,1017.6
2017-09-03T01:23:08.071Z,1017.6
2017-09-03T01:24:09.716Z,1017.6
2017-09-03T01:25:11.430Z,1017.6
2017-09-03T01:26:13.046Z,1017.6
2017-09-03T01:27:14.684Z,1017.6
2017-09-03T01:28:16.307Z,1017.6
2017-09-03T01:29:17.965Z,1017.6
2017-09-03T01:30:19.626Z,1017.6
2017-09-03T01:31:21.239Z,1017.6
2017-09-03T01:32:22.866Z,1017.6
2017-09-03T01:33:24.564Z,1017.6
2017-09-03T01:34:26.178Z,1017.5
2017-09-03T01:35:27.808Z,1017.6
2017-09-03T01:36:29.460Z,1017.6
2017-09-03T01:37:31.059Z,1017.5
2017-09-03T01:38:32.709Z,1017.6
2017-09-03T01:39:34.261Z,1017.6
2017-09-03T01:40:35.885Z,1017.6
2017-09-03T01:41:37.559Z,1017.6
2017-09-03T01:42:39.144Z,1017.6
2017-09-03T01:43:40.751Z,1017.6
2017-09-03T01:44:42.370Z,1017.6
2017-09-03T01:45:44.027Z,1017.6
2017-09-03T01:46:45.659Z,1017.5
2017-09-03T01:47:47.286Z,1017.5
2017-09-03T01:48:48.911Z,1017.5
2017-09-03T01:49:50.530Z,1017.5
2017-09-03T01:50:52.112Z,1017.5
2017-09-03T01:51:53.745Z,1017.5
2017-09-03T01:52:55.350Z,1017.5
2017-09-03T01:53:56.996Z,1017.6
2017-09-03T01:54:58.621Z,1017.5
2017-09-03T01:56:00.258Z,1017.5
2017-09-03T01:57:01.914Z,1017.6
2017-09-03T01:58:03.578Z,1017.6
2017-09-03T01:59:05.246Z,1017.6
2017-09-03T02:00:06.926Z,1017.5
2017-09-03T02:01:08.520Z,1017.6
2017-09-03T02:02:10.145Z,1017.5
2017-09-03T02:03:11.764Z,1017.5
2017-09-03T02:04:13.411Z,1017.5
2017-09-03T02:05:15.030Z,1017.5
2017-09-03T02:06:16.649Z,1017.5
2017-09-03T02:07:18.254Z,1017.5
2017-09-03T02:08:19.849Z,1017.5
2017-09-03T02:09:21.459Z,1017.5
2017-09-03T02:10:23.125Z,1017.5
2017-09-03T02:11:24.777Z,1017.5
2017-09-03T02:12:26.355Z,1017.5
2017-09-03T02:13:28.022Z,1017.5
2017-09-03T02:14:29.629Z,1017.5
2017-09-03T02:15:31.243Z,1017.5
2017-09-03T02:16:32.830Z,1017.5
2017-09-03T02:17:34.456Z,1017.5
2017-09-03T02:18:36.079Z,1017.5
2017-09-03T02:19:37.721Z,1017.5
2017-09-03T02:20:39.454Z,1017.4
2017-09-03T02:21:41.033Z,1017.4
2017-09-03T02:22:42.768Z,1017.4
2017-09-03T02:23:44.397Z,1017.4
2017-09-03T02:24:46.088Z,1017.5
2017-09-03T02:25:47.649Z,1017.4
2017-09-03T02:26:49.312Z,1017.5
2017-09-03T02:27:51.040Z,1017.5
2017-09-03T02:28:52.628Z,1017.5
2017-09-03T02:29:54.226Z,1017.5
2017-09-03T02:30:55.790Z,1017.5
2017-09-03T02:31:57.319Z,1017.4
2017-09-03T02:32:59.015Z,1017.5
2017-09-03T02:34:00.635Z,1017.4
2017-09-03T02:35:02.228Z,1017.4
2017-09-03T02:36:03.831Z,1017.4
2017-09-03T02:37:05.443Z,1017.4
2017-09-03T02:38:07.124Z,1017.4
2017-09-03T02:39:08.744Z,1017.4
2017-09-03T02:40:10.338Z,1017.3
2017-09-03T02:41:11.979Z,1017.4
2017-09-03T02:42:13.591Z,1017.3
2017-09-03T02:43:15.224Z,1017.3
2017-09-03T02:44:16.844Z,1017.3
2017-09-03T02:45:18.439Z,1017.3
2017-09-03T02:46:20.056Z,1017.3
2017-09-03T02:47:21.680Z,1017.4
2017-09-03T02:48:23.300Z,1017.3
2017-09-03T02:49:24.953Z,1017.3
2017-09-03T02:50:26.566Z,1017.3
2017-09-03T02:51:28.197Z,1017.3
2017-09-03T02:52:29.825Z,1017.3
2017-09-03T02:53:31.445Z,1017.3
2017-09-03T02:54:33.128Z,1017.3
2017-09-03T02:55:34.761Z,1017.3
2017-09-03T02:56:36.366Z,1017.3
2017-09-03T02:57:38.061Z,1017.3
2017-09-03T02:58:39.699Z,1017.4
2017-09-03T02:59:41.454Z,1017.3
2017-09-03T03:00:43.096Z,1017.4
2017-09-03T03:01:44.747Z,1017.4
2017-09-03T03:02:46.412Z,1017.4
2017-09-03T03:03:48.000Z,1017.4
2017-09-03T03:04:49.643Z,1017.4
2017-09-03T03:05:51.264Z,1017.4
2017-09-03T03:06:52.935Z,1017.4
2017-09-03T03:07:54.659Z,1017.4
2017-09-03T03:08:56.262Z,1017.4
2017-09-03T03:09:57.855Z,1017.4
2017-09-03T03:10:59.483Z,1017.3
2017-09-03T03:12:01.066Z,1017.3
2017-09-03T03:13:02.759Z,1017.4
2017-09-03T03:14:04.439Z,1017.3
2017-09-03T03:15:06.129Z,1017.3
2017-09-03T03:16:07.731Z,1017.3
2017-09-03T03:17:09.327Z,1017.3
2017-09-03T03:18:10.966Z,1017.3
2017-09-03T03:19:12.614Z,1017.3
2017-09-03T03:20:14.382Z,1017.3
2017-09-03T03:21:15.965Z,1017.4
2017-09-03T03:22:17.579Z,1017.3
2017-09-03T03:23:19.192Z,1017.3
2017-09-03T03:24:20.802Z,1017.3
2017-09-03T03:25:22.430Z,1017.3
2017-09-03T03:26:24.098Z,1017.3
2017-09-03T03:27:25.735Z,1017.2
2017-09-03T03:28:27.393Z,1017.2
2017-09-03T03:29:29.030Z,1017.2
2017-09-03T03:30:30.725Z,1017.2
2017-09-03T03:31:32.340Z,1017.2
2017-09-03T03:32:34.834Z,1017.1
2017-09-03T03:33:36.420Z,1017.1
2017-09-03T03:34:38.029Z,1017.1
2017-09-03T03:35:39.707Z,1017.1
2017-09-03T03:36:41.395Z,1017.1
2017-09-03T03:37:43.095Z,1017.1
2017-09-03T03:38:44.718Z,1017.1
2017-09-03T03:39:46.306Z,1017.0
2017-09-03T03:40:47.923Z,1017.0
2017-09-03T03:41:49.556Z,1017.0
2017-09-03T03:42:51.248Z,1017.0
2017-09-03T03:43:52.968Z,1017.0
2017-09-03T03:44:54.625Z,1017.0
2017-09-03T03:45:56.224Z,1017.0
2017-09-03T03:46:57.883Z,1017.0
2017-09-03T03:47:59.527Z,1017.0
2017-09-03T03:49:01.110Z,1017.0
2017-09-03T03:50:02.720Z,1017.0
2017-09-03T03:51:05.231Z,1017.0
2017-09-03T03:52:06.847Z,1017.0
2017-09-03T03:53:08.482Z,1016.9
2017-09-03T03:54:10.077Z,1016.9
2017-09-03T03:55:11.788Z,1016.9
2017-09-03T03:56:13.412Z,1016.9
2017-09-03T03:57:15.077Z,1016.9
2017-09-03T03:58:16.661Z,1016.9
2017-09-03T03:59:18.325Z,1016.9
2017-09-03T04:00:19.914Z,1017.0
2017-09-03T04:01:21.492Z,1017.0
2017-09-03T04:02:23.076Z,1017.0
2017-09-03T04:03:24.745Z,1017.0
2017-09-03T04:04:26.383Z,1017.0
2017-09-03T04:05:27.982Z,1017.0
2017-09-03T04:06:29.592Z,1017.0
2017-09-03T04:07:31.233Z,1017.0
2017-09-03T04:08:32.858Z,1017.0
2017-09-03T04:09:35.235Z,1017.0
2017-09-03T04:10:36.866Z,1017.0
2017-09-03T04:11:38.522Z,1017.1
2017-09-03T04:12:40.204Z,1017.1
2017-09-03T04:13:41.799Z,1017.0
2017-09-03T04:14:43.450Z,1017.0
2017-09-03T04:15:45.105Z,1017.0
2017-09-03T04:16:46.710Z,1017.0
2017-09-03T04:17:48.367Z,1017.0
2017-09-03T04:18:50.039Z,1017.1
2017-09-03T04:19:51.661Z,1017.0
2017-09-03T04:20:53.283Z,1017.0
2017-09-03T04:21:54.858Z,1017.0
2017-09-03T04:22:56.454Z,1017.0
2017-09-03T04:23:58.097Z,1017.0
2017-09-03T04:24:59.698Z,1017.0
2017-09-03T04:26:01.287Z,1017.0
2017-09-03T04:27:02.896Z,1017.0
2017-09-03T04:28:04.511Z,1017.0
2017-09-03T04:29:06.154Z,1017.0
2017-09-03T04:30:07.786Z,1017.0
2017-09-03T04:31:09.421Z,1016.9
2017-09-03T04:32:11.018Z,1016.9
2017-09-03T04:33:12.668Z,1016.9
2017-09-03T04:34:14.298Z,1016.9
2017-09-03T04:35:15.920Z,1016.9
2017-09-03T04:36:17.535Z,1016.9
2017-09-03T04:37:19.200Z,1016.9
2017-09-03T04:38:20.766Z,1016.9
2017-09-03T04:39:22.384Z,1016.9
2017-09-03T04:40:24.010Z,1016.9
2017-09-03T04:41:25.648Z,1016.9
2017-09-03T04:42:27.228Z,1016.9
2017-09-03T04:43:28.820Z,1016.9
2017-09-03T04:44:30.453Z,1017.0
2017-09-03T04:45:32.073Z,1017.0
2017-09-03T04:46:33.642Z,1016.9
2017-09-03T04:47:35.288Z,1016.9
2017-09-03T04:48:36.923Z,1016.9
2017-09-03T04:49:38.489Z,1016.9
2017-09-03T04:50:40.127Z,1016.9
2017-09-03T04:51:41.739Z,1016.9
2017-09-03T04:52:43.361Z,1016.9
2017-09-03T04:53:45.835Z,1016.9
2017-09-03T04:54:47.490Z,1016.9
2017-09-03T04:55:49.031Z,1016.9
2017-09-03T04:56:50.635Z,1016.9
2017-09-03T04:57:52.298Z,1016.9
2017-09-03T04:58:53.899Z,1016.9
2017-09-03T04:59:55.536Z,1016.9
2017-09-03T05:00:57.170Z,1016.9
2017-09-03T05:01:58.762Z,1017.0
2017-09-03T05:03:00.512Z,1016.9
2017-09-03T05:04:02.100Z,1016.9
2017-09-03T05:05:03.704Z,1016.9
2017-09-03T05:06:05.533Z,1016.9
2017-09-03T05:07:07.147Z,1016.9
2017-09-03T05:08:09.357Z,1016.9
2017-09-03T05:09:10.975Z,1016.9
2017-09-03T05:10:12.580Z,1016.9
2017-09-03T05:11:14.281Z,1016.9
2017-09-03T05:12:15.957Z,1016.9
2017-09-03T05:13:17.551Z,1016.9
2017-09-03T05:14:19.129Z,1016.9
2017-09-03T05:15:20.821Z,1016.9
2017-09-03T05:16:22.474Z,1016.8
2017-09-03T05:17:24.172Z,1016.9
2017-09-03T05:18:25.786Z,1016.8
2017-09-03T05:19:27.414Z,1016.8
2017-09-03T05:20:29.111Z,1016.8
2017-09-03T05:21:31.085Z,1016.8
2017-09-03T05:22:32.713Z,1016.8
2017-09-03T05:23:34.384Z,1016.8
2017-09-03T05:24:36.032Z,1016.8
2017-09-03T05:25:37.702Z,1016.8
2017-09-03T05:26:39.364Z,1016.8
2017-09-03T05:27:40.991Z,1016.8
2017-09-03T05:28:42.696Z,1016.8
2017-09-03T05:29:44.327Z,1016.8
2017-09-03T05:30:45.962Z,1016.9
2017-09-03T05:31:47.537Z,1016.8
2017-09-03T05:32:49.183Z,1016.9
2017-09-03T05:33:51.236Z,1016.9
2017-09-03T05:34:52.917Z,1016.9
2017-09-03T05:35:55.123Z,1016.9
2017-09-03T05:36:56.874Z,1016.9
2017-09-03T05:37:58.622Z,1016.9
2017-09-03T05:39:00.337Z,1017.0
2017-09-03T05:40:02.024Z,1017.0
2017-09-03T05:41:03.726Z,1017.0
2017-09-03T05:42:05.535Z,1017.0
2017-09-03T05:43:07.211Z,1017.0
2017-09-03T05:44:08.905Z,1017.0
2017-09-03T05:45:10.631Z,1017.0
2017-09-03T05:46:12.356Z,1017.0
2017-09-03T05:47:14.050Z,1017.0
2017-09-03T05:48:15.729Z,1017.0
2017-09-03T05:49:17.454Z,1017.0
2017-09-03T05:50:19.180Z,1017.0
2017-09-03T05:51:20.904Z,1017.0
2017-09-03T05:52:22.582Z,1017.0
2017-09-03T05:53:24.256Z,1017.0
2017-09-03T05:54:26.897Z,1017.0
2017-09-03T05:55:28.653Z,1017.0
2017-09-03T05:56:30.351Z,1017.0
2017-09-03T05:57:32.042Z,1017.0
2017-09-03T05:58:33.684Z,1017.0
2017-09-03T05:59:35.385Z,1017.0
2017-09-03T06:00:37.069Z,1017.0
2017-09-03T06:01:38.783Z,1017.0
2017-09-03T06:02:40.473Z,1016.9
2017-09-03T06:03:42.173Z,1017.0
2017-09-03T06:04:43.864Z,1016.9
2017-09-03T06:05:45.572Z,1016.9
2017-09-03T06:06:47.270Z,1016.9
2017-09-03T06:07:48.926Z,1016.9
2017-09-03T06:08:50.613Z,1016.9
2017-09-03T06:09:52.317Z,1016.8
2017-09-03T06:10:53.979Z,1016.9
2017-09-03T06:11:55.660Z,1016.9
2017-09-03T06:12:57.377Z,1016.9
2017-09-03T06:13:59.078Z,1016.9
2017-09-03T06:15:00.672Z,1016.9
2017-09-03T06:16:02.133Z,1016.9
2017-09-03T06:17:03.888Z,1017.0
2017-09-03T06:18:05.548Z,1016.9
2017-09-03T06:19:07.111Z,1016.9
2017-09-03T06:20:08.775Z,1016.9
2017-09-03T06:21:10.500Z,1017.0
2017-09-03T06:22:12.301Z,1016.9
2017-09-03T06:23:14.027Z,1016.9
2017-09-03T06:24:15.759Z,1016.9
2017-09-03T06:25:17.449Z,1016.9
2017-09-03T06:26:19.156Z,1016.9
2017-09-03T06:27:20.790Z,1016.9
2017-09-03T06:28:22.466Z,1016.9
2017-09-03T06:29:24.209Z,1016.9
2017-09-03T06:30:25.883Z,1016.8
2017-09-03T06:31:27.538Z,1016.8
2017-09-03T06:32:29.173Z,1016.8
2017-09-03T06:33:30.807Z,1016.9
2017-09-03T06:34:32.477Z,1016.9
2017-09-03T06:35:33.977Z,1016.9
2017-09-03T06:36:35.559Z,1016.9
2017-09-03T06:37:37.194Z,1016.9
2017-09-03T06:38:38.681Z,1016.9
2017-09-03T06:39:40.398Z,1016.9
2017-09-03T06:40:41.903Z,1016.9
2017-09-03T06:41:43.762Z,1016.9
2017-09-03T06:42:45.456Z,1016.9
2017-09-03T06:43:47.120Z,1016.9
2017-09-03T06:44:48.621Z,1016.9
2017-09-03T06:45:50.323Z,1016.9
2017-09-03T06:46:51.773Z,1016.9
2017-09-03T06:47:53.273Z,1016.9
2017-09-03T06:48:54.966Z,1016.9
2017-09-03T06:49:56.715Z,1016.9
2017-09-03T06:50:58.269Z,1016.9
2017-09-03T06:51:59.723Z,1016.9
2017-09-03T06:53:01.511Z,1016.9
2017-09-03T06:54:03.097Z,1016.9
2017-09-03T06:55:04.633Z,1016.8
2017-09-03T06:56:06.284Z,1016.9
2017-09-03T06:57:07.998Z,1016.8
2017-09-03T06:58:09.610Z,1016.9
2017-09-03T06:59:11.278Z,1016.9
2017-09-03T07:00:13.087Z,1016.9
2017-09-03T07:01:14.755Z,1016.9
2017-09-03T07:02:16.369Z,1016.9
2017-09-03T07:03:17.984Z,1016.9
2017-09-03T07:04:19.607Z,1016.9
2017-09-03T07:05:21.146Z,1016.9
2017-09-03T07:06:22.801Z,1016.9
2017-09-03T07:07:25.176Z,1016.9
2017-09-03T07:08:26.670Z,1016.8
2017-09-03T07:09:28.179Z,1016.9
2017-09-03T07:10:29.630Z,1016.8
2017-09-03T07:11:31.077Z,1016.9
2017-09-03T07:12:32.545Z,1016.9
2017-09-03T07:13:34.015Z,1016.9
2017-09-03T07:14:35.510Z,1016.9
2017-09-03T07:15:37.046Z,1016.9
2017-09-03T07:16:38.567Z,1016.9
2017-09-03T07:17:40.142Z,1016.9
2017-09-03T07:18:41.630Z,1016.9
2017-09-03T07:19:43.114Z,1016.9
2017-09-03T07:20:44.603Z,1016.9
2017-09-03T07:21:46.171Z,1016.9
2017-09-03T07:22:47.649Z,1016.9
2017-09-03T07:23:49.149Z,1016.9
2017-09-03T07:24:50.677Z,1016.9
2017-09-03T07:25:52.182Z,1016.9
2017-09-03T07:26:53.661Z,1016.8
2017-09-03T07:27:55.186Z,1016.9
2017-09-03T07:28:56.635Z,1016.9
2017-09-03T07:29:58.126Z,1016.8
2017-09-03T07:30:59.644Z,1016.9
2017-09-03T07:32:01.133Z,1016.9
2017-09-03T07:33:02.618Z,1016.9
2017-09-03T07:34:04.150Z,1016.9
2017-09-03T07:35:05.604Z,1016.9
2017-09-03T07:36:07.089Z,1016.9
2017-09-03T07:37:08.550Z,1016.9
2017-09-03T07:38:10.027Z,1016.9
2017-09-03T07:39:11.479Z,1016.9
2017-09-03T07:40:12.933Z,1016.9
2017-09-03T07:41:14.338Z,1016.8
2017-09-03T07:42:15.755Z,1016.8
2017-09-03T07:43:17.175Z,1016.8
2017-09-03T07:44:18.591Z,1016.8
2017-09-03T07:45:20.018Z,1016.8
2017-09-03T07:46:21.456Z,1016.8
2017-09-03T07:47:22.877Z,1016.8
2017-09-03T07:48:24.314Z,1016.8
2017-09-03T07:49:25.763Z,1016.8
2017-09-03T07:50:27.180Z,1016.8
2017-09-03T07:51:28.600Z,1016.8
2017-09-03T07:52:30.010Z,1016.8
2017-09-03T07:53:31.418Z,1016.7
2017-09-03T07:54:32.847Z,1016.8
2017-09-03T07:55:34.290Z,1016.8
2017-09-03T07:56:35.756Z,1016.8
2017-09-03T07:57:37.172Z,1016.7
2017-09-03T07:58:38.605Z,1016.8
2017-09-03T07:59:40.028Z,1016.8
2017-09-03T08:00:41.472Z,1016.8
2017-09-03T08:01:42.920Z,1016.8
2017-09-03T08:02:44.366Z,1016.8
2017-09-03T08:03:45.804Z,1016.8
2017-09-03T08:04:47.227Z,1016.7
2017-09-03T08:05:48.662Z,1016.7
2017-09-03T08:06:50.328Z,1016.8
2017-09-03T08:07:51.771Z,1016.8
2017-09-03T08:08:53.224Z,1016.7
2017-09-03T08:09:54.636Z,1016.7
2017-09-03T08:10:56.061Z,1016.7
2017-09-03T08:11:57.535Z,1016.7
2017-09-03T08:12:58.972Z,1016.7
2017-09-03T08:14:00.429Z,1016.8
2017-09-03T08:15:01.866Z,1016.7
2017-09-03T08:16:03.316Z,1016.7
2017-09-03T08:17:05.724Z,1016.7
2017-09-03T08:18:07.210Z,1016.7
2017-09-03T08:19:08.664Z,1016.7
2017-09-03T08:20:10.163Z,1016.8
2017-09-03T08:21:11.655Z,1016.8
2017-09-03T08:22:13.125Z,1016.8
2017-09-03T08:23:14.631Z,1016.7
2017-09-03T08:24:16.071Z,1016.8
2017-09-03T08:25:17.500Z,1016.8
2017-09-03T08:26:18.912Z,1016.7
2017-09-03T08:27:20.323Z,1016.7
2017-09-03T08:28:21.738Z,1016.7
2017-09-03T08:29:23.148Z,1016.7
2017-09-03T08:30:24.553Z,1016.7
2017-09-03T08:31:25.956Z,1016.7
2017-09-03T08:32:27.355Z,1016.7
2017-09-03T08:33:28.772Z,1016.7
2017-09-03T08:34:30.174Z,1016.7
2017-09-03T08:35:31.581Z,1016.7
2017-09-03T08:36:32.987Z,1016.7
2017-09-03T08:37:34.396Z,1016.7
2017-09-03T08:38:35.804Z,1016.7
2017-09-03T08:39:37.210Z,1016.7
2017-09-03T08:40:38.611Z,1016.7
2017-09-03T08:41:40.018Z,1016.7
2017-09-03T08:42:41.444Z,1016.7
2017-09-03T08:43:42.848Z,1016.7
2017-09-03T08:44:44.259Z,1016.6
2017-09-03T08:45:45.662Z,1016.7
2017-09-03T08:46:47.617Z,1016.6
2017-09-03T08:47:49.606Z,1016.7
2017-09-03T08:48:51.638Z,1016.6
2017-09-03T08:49:53.635Z,1016.6
2017-09-03T08:50:55.182Z,1016.6
2017-09-03T08:51:56.589Z,1016.6
2017-09-03T08:52:57.999Z,1016.6
2017-09-03T08:53:59.411Z,1016.6
2017-09-03T08:55:00.848Z,1016.6
2017-09-03T08:56:02.254Z,1016.6
2017-09-03T08:57:03.661Z,1016.6
2017-09-03T08:58:05.072Z,1016.5
2017-09-03T08:59:06.481Z,1016.5
2017-09-03T09:00:07.887Z,1016.5
2017-09-03T09:01:09.298Z,1016.5
2017-09-03T09:02:10.707Z,1016.5
2017-09-03T09:03:12.119Z,1016.5
2017-09-03T09:04:13.518Z,1016.4
2017-09-03T09:05:14.926Z,1016.4
2017-09-03T09:06:16.326Z,1016.4
2017-09-03T09:07:17.753Z,1016.4
2017-09-03T09:08:19.144Z,1016.4
2017-09-03T09:09:20.555Z,1016.4
2017-09-03T09:10:21.977Z,1016.3
2017-09-03T09:11:23.386Z,1016.4
2017-09-03T09:12:24.791Z,1016.3
2017-09-03T09:13:26.196Z,1016.3
2017-09-03T09:14:27.612Z,1016.3
2017-09-03T09:15:29.023Z,1016.3
2017-09-03T09:16:30.435Z,1016.3
2017-09-03T09:17:31.841Z,1016.3
2017-09-03T09:18:33.261Z,1016.3
2017-09-03T09:19:34.667Z,1016.3
2017-09-03T09:20:36.072Z,1016.3
2017-09-03T09:21:37.488Z,1016.3
2017-09-03T09:22:38.904Z,1016.3
2017-09-03T09:23:40.298Z,1016.3
2017-09-03T09:24:41.702Z,1016.3
2017-09-03T09:25:43.105Z,1016.3
2017-09-03T09:26:44.507Z,1016.3
2017-09-03T09:27:45.915Z,1016.3
2017-09-03T09:28:47.330Z,1016.3
2017-09-03T09:29:48.735Z,1016.3
2017-09-03T09:30:50.139Z,1016.3
2017-09-03T09:31:51.546Z,1016.2
2017-09-03T09:32:52.956Z,1016.2
2017-09-03T09:33:54.361Z,1016.2
2017-09-03T09:34:55.764Z,1016.2
2017-09-03T09:35:57.180Z,1016.2
2017-09-03T09:36:58.630Z,1016.2
2017-09-03T09:38:00.040Z,1016.2
2017-09-03T09:39:01.479Z,1016.2
2017-09-03T09:40:02.884Z,1016.2
2017-09-03T09:41:04.295Z,1016.2
2017-09-03T09:42:05.703Z,1016.2
2017-09-03T09:43:07.109Z,1016.2
2017-09-03T09:44:08.517Z,1016.1
2017-09-03T09:45:09.921Z,1016.1
2017-09-03T09:46:11.323Z,1016.1
2017-09-03T09:47:12.728Z,1016.1
2017-09-03T09:48:14.134Z,1016.1
2017-09-03T09:49:15.545Z,1016.1
2017-09-03T09:50:16.953Z,1016.1
2017-09-03T09:51:18.359Z,1016.1
2017-09-03T09:52:19.761Z,1016.1
2017-09-03T09:53:21.164Z,1016.1
2017-09-03T09:54:22.568Z,1016.1
2017-09-03T09:55:23.976Z,1016.1
2017-09-03T09:56:25.378Z,1016.1
2017-09-03T09:57:26.793Z,1016.1
2017-09-03T09:58:28.198Z,1016.1
2017-09-03T09:59:29.601Z,1016.1
2017-09-03T10:00:31.004Z,1016.1
2017-09-03T10:01:32.408Z,1016.1
2017-09-03T10:02:33.812Z,1016.0
2017-09-03T10:03:35.224Z,1016.0
2017-09-03T10:04:36.631Z,1016.1
2017-09-03T10:05:38.034Z,1016.0
2017-09-03T10:06:39.440Z,1016.0
2017-09-03T10:07:40.844Z,1016.0
2017-09-03T10:08:42.248Z,1016.0
2017-09-03T10:09:43.690Z,1016.0
2017-09-03T10:10:45.095Z,1016.0
2017-09-03T10:11:46.507Z,1016.0
2017-09-03T10:12:47.959Z,1016.0
2017-09-03T10:13:49.361Z,1016.0
2017-09-03T10:14:51.059Z,1016.0
2017-09-03T10:15:55.256Z,1016.0
2017-09-03T10:16:56.872Z,1016.0
2017-09-03T10:17:58.353Z,1016.0
2017-09-03T10:18:59.771Z,1015.9
2017-09-03T10:20:01.210Z,1016.0
2017-09-03T10:21:02.746Z,1015.9
2017-09-03T10:22:04.191Z,1016.0
2017-09-03T10:23:05.665Z,1016.0
2017-09-03T10:24:07.117Z,1016.0
2017-09-03T10:25:08.558Z,1016.0
2017-09-03T10:26:10.713Z,1016.0
2017-09-03T10:27:12.406Z,1015.9
2017-09-03T10:28:13.933Z,1015.9
2017-09-03T10:29:15.582Z,1015.9
2017-09-03T10:30:17.158Z,1015.9
2017-09-03T10:31:18.967Z,1016.0
2017-09-03T10:32:20.608Z,1015.9
2017-09-03T10:33:22.208Z,1016.0
2017-09-03T10:34:23.868Z,1015.9
2017-09-03T10:35:25.466Z,1015.9
2017-09-03T10:36:26.995Z,1015.9
2017-09-03T10:37:28.521Z,1015.9
2017-09-03T10:38:30.077Z,1015.8
2017-09-03T10:39:31.621Z,1015.9
2017-09-03T10:40:33.113Z,1015.9
2017-09-03T10:41:34.642Z,1015.8
2017-09-03T10:42:36.157Z,1015.9
2017-09-03T10:43:37.725Z,1015.8
2017-09-03T10:44:39.290Z,1015.8
2017-09-03T10:45:40.928Z,1015.8
2017-09-03T10:46:42.473Z,1015.8
2017-09-03T10:47:44.054Z,1015.8
2017-09-03T10:48:45.705Z,1015.8
2017-09-03T10:49:47.362Z,1015.8
2017-09-03T10:50:48.918Z,1015.8
2017-09-03T10:51:50.433Z,1015.8
2017-09-03T10:52:51.948Z,1015.8
2017-09-03T10:53:53.512Z,1015.7
2017-09-03T10:54:55.082Z,1015.7
2017-09-03T10:55:56.661Z,1015.7
2017-09-03T10:56:58.404Z,1015.7
2017-09-03T10:58:00.136Z,1015.7
2017-09-03T10:59:01.739Z,1015.7
2017-09-03T11:00:03.477Z,1015.7
2017-09-03T11:01:05.040Z,1015.7
2017-09-03T11:02:06.591Z,1015.7
2017-09-03T11:03:08.117Z,1015.7
2017-09-03T11:04:09.766Z,1015.7
2017-09-03T11:05:11.374Z,1015.7
2017-09-03T11:06:12.912Z,1015.7
2017-09-03T11:07:14.575Z,1015.7
2017-09-03T11:08:16.149Z,1015.7
2017-09-03T11:09:17.736Z,1015.7
2017-09-03T11:10:19.343Z,1015.6
2017-09-03T11:11:20.928Z,1015.6
2017-09-03T11:12:22.500Z,1015.6
2017-09-03T11:13:24.078Z,1015.6
2017-09-03T11:14:25.745Z,1015.6
2017-09-03T11:15:27.389Z,1015.6
2017-09-03T11:16:29.055Z,1015.6
2017-09-03T11:17:30.671Z,1015.6
2017-09-03T11:18:32.428Z,1015.6
2017-09-03T11:19:34.162Z,1015.5
2017-09-03T11:20:35.715Z,1015.5
2017-09-03T11:21:37.268Z,1015.5
2017-09-03T11:22:38.869Z,1015.5
2017-09-03T11:23:40.535Z,1015.5
2017-09-03T11:24:42.119Z,1015.5
2017-09-03T11:25:43.691Z,1015.5
2017-09-03T11:26:45.397Z,1015.5
2017-09-03T11:27:48.054Z,1015.5
2017-09-03T11:28:49.698Z,1015.5
2017-09-03T11:29:51.285Z,1015.5
2017-09-03T11:30:52.911Z,1015.5
2017-09-03T11:31:54.520Z,1015.5
2017-09-03T11:32:56.122Z,1015.4
2017-09-03T11:33:57.657Z,1015.5
2017-09-03T11:34:59.237Z,1015.4
2017-09-03T11:36:00.827Z,1015.4
2017-09-03T11:37:02.411Z,1015.4
2017-09-03T11:38:04.125Z,1015.4
2017-09-03T11:39:05.650Z,1015.4
2017-09-03T11:40:07.211Z,1015.4
2017-09-03T11:41:08.770Z,1015.3
2017-09-03T11:42:10.356Z,1015.4
2017-09-03T11:43:11.935Z,1015.4
2017-09-03T11:44:13.554Z,1015.4
2017-09-03T11:45:15.194Z,1015.3
2017-09-03T11:46:16.773Z,1015.3
2017-09-03T11:47:18.331Z,1015.3
2017-09-03T11:48:19.928Z,1015.3
2017-09-03T11:49:21.551Z,1015.3
2017-09-03T11:50:23.216Z,1015.2
2017-09-03T11:51:24.844Z,1015.3
2017-09-03T11:52:26.473Z,1015.2
2017-09-03T11:53:28.085Z,1015.2
2017-09-03T11:54:29.680Z,1015.3
2017-09-03T11:55:31.317Z,1015.3
2017-09-03T11:56:32.967Z,1015.3
2017-09-03T11:57:34.581Z,1015.2
2017-09-03T11:58:36.162Z,1015.3
2017-09-03T11:59:37.726Z,1015.3
2017-09-03T12:00:39.297Z,1015.2
2017-09-03T12:01:40.832Z,1015.2
2017-09-03T12:02:42.377Z,1015.2
2017-09-03T12:03:43.927Z,1015.2
2017-09-03T12:04:45.542Z,1015.2
2017-09-03T12:05:47.130Z,1015.2
2017-09-03T12:06:48.752Z,1015.2
2017-09-03T12:07:50.284Z,1015.2
2017-09-03T12:08:51.853Z,1015.2
2017-09-03T12:09:53.392Z,1015.2
2017-09-03T12:10:54.954Z,1015.2
2017-09-03T12:11:56.590Z,1015.2
2017-09-03T12:12:58.130Z,1015.2
2017-09-03T12:13:59.734Z,1015.2
2017-09-03T12:15:01.297Z,1015.1
2017-09-03T12:16:02.846Z,1015.1
2017-09-03T12:17:04.411Z,1015.1
2017-09-03T12:18:06.017Z,1015.1
2017-09-03T12:19:07.614Z,1015.1
2017-09-03T12:20:09.187Z,1015.1
2017-09-03T12:21:10.724Z,1015.1
2017-09-03T12:22:12.268Z,1015.1
2017-09-03T12:23:13.813Z,1015.0
2017-09-03T12:24:15.321Z,1015.0
2017-09-03T12:25:16.840Z,1015.0
2017-09-03T12:26:18.383Z,1015.0
2017-09-03T12:27:19.969Z,1015.0
2017-09-03T12:28:21.523Z,1015.0
2017-09-03T12:29:23.046Z,1015.0
2017-09-03T12:30:24.569Z,1014.9
2017-09-03T12:31:26.060Z,1014.9
2017-09-03T12:32:27.610Z,1014.9
2017-09-03T12:33:29.129Z,1014.9
2017-09-03T12:34:30.740Z,1014.9
2017-09-03T12:35:32.234Z,1014.9
2017-09-03T12:36:34.327Z,1014.9
2017-09-03T12:37:35.868Z,1014.8
2017-09-03T12:38:37.356Z,1014.8
2017-09-03T12:39:38.881Z,1014.8
2017-09-03T12:40:40.417Z,1014.8
2017-09-03T12:41:41.938Z,1014.8
2017-09-03T12:42:43.848Z,1014.8
2017-09-03T12:43:45.348Z,1014.8
2017-09-03T12:44:46.872Z,1014.8
2017-09-03T12:45:48.382Z,1014.8
2017-09-03T12:46:49.954Z,1014.8
2017-09-03T12:47:51.533Z,1014.7
2017-09-03T12:48:53.071Z,1014.8